Aviation Digital Data Service (ADDS)

Output produced by METARs form (0357 UTC 01 October 2014)
found at http://aviationweather.gov/adds/metars/
 
KGMU 302337Z 0100/0124 17004KT P6SM FEW050 SCT250 
     FM010400 00000KT P6SM SCT250 
     FM011700 20005KT P6SM FEW050 SCT250